sensor_id;sensor_type;location;lat;lon;timestamp;pressure;altitude;pressure_sealevel;temperature;humidity
35918;BME280;22011;59.912;30.300;2024-01-10T00:01:06;101596.03;;;1.42;80.79
35918;BME280;22011;59.912;30.300;2024-01-10T00:03:34;101599.53;;;1.27;80.69
35918;BME280;22011;59.912;30.300;2024-01-10T00:06:01;101598.75;;;1.25;80.99
35918;BME280;22011;59.912;30.300;2024-01-10T00:08:29;101604.78;;;1.27;80.68
35918;BME280;22011;59.912;30.300;2024-01-10T00:10:58;101605.03;;;1.22;79.92
35918;BME280;22011;59.912;30.300;2024-01-10T00:13:25;101607.47;;;1.10;79.58
35918;BME280;22011;59.912;30.300;2024-01-10T00:15:53;101613.09;;;1.04;78.74
35918;BME280;22011;59.912;30.300;2024-01-10T00:18:21;101622.38;;;0.93;78.76
35918;BME280;22011;59.912;30.300;2024-01-10T00:20:49;101628.03;;;0.86;78.70
35918;BME280;22011;59.912;30.300;2024-01-10T00:23:18;101630.91;;;0.81;78.87
35918;BME280;22011;59.912;30.300;2024-01-10T00:25:46;101637.25;;;0.77;78.63
35918;BME280;22011;59.912;30.300;2024-01-10T00:28:15;101638.09;;;0.78;79.01
35918;BME280;22011;59.912;30.300;2024-01-10T00:30:44;101644.28;;;0.77;78.57
35918;BME280;22011;59.912;30.300;2024-01-10T00:33:13;101642.41;;;0.79;78.74
35918;BME280;22011;59.912;30.300;2024-01-10T00:35:41;101648.66;;;0.76;78.31
35918;BME280;22011;59.912;30.300;2024-01-10T00:38:08;101649.84;;;0.71;78.67
35918;BME280;22011;59.912;30.300;2024-01-10T00:40:36;101648.47;;;0.63;78.48
35918;BME280;22011;59.912;30.300;2024-01-10T00:43:04;101675.84;;;0.58;78.19
35918;BME280;22011;59.912;30.300;2024-01-10T00:45:33;101670.75;;;0.55;78.06
35918;BME280;22011;59.912;30.300;2024-01-10T00:48:00;101659.50;;;0.53;77.93
35918;BME280;22011;59.912;30.300;2024-01-10T00:50:28;101670.75;;;0.55;77.50
35918;BME280;22011;59.912;30.300;2024-01-10T00:52:55;101679.72;;;0.51;77.69
35918;BME280;22011;59.912;30.300;2024-01-10T00:55:23;101682.94;;;0.56;77.67
35918;BME280;22011;59.912;30.300;2024-01-10T00:57:50;101698.06;;;0.51;77.60
35918;BME280;22011;59.912;30.300;2024-01-10T01:00:18;101693.75;;;0.50;77.14
35918;BME280;22011;59.912;30.300;2024-01-10T01:02:47;101694.69;;;0.49;76.69
35918;BME280;22011;59.912;30.300;2024-01-10T01:05:15;101685.44;;;0.42;76.85
35918;BME280;22011;59.912;30.300;2024-01-10T01:07:42;101690.81;;;0.39;77.09
35918;BME280;22011;59.912;30.300;2024-01-10T01:10:10;101686.59;;;0.36;77.35
35918;BME280;22011;59.912;30.300;2024-01-10T01:12:37;101688.44;;;0.34;77.42
35918;BME280;22011;59.912;30.300;2024-01-10T01:15:06;101683.19;;;0.34;77.34
35918;BME280;22011;59.912;30.300;2024-01-10T01:17:34;101688.66;;;0.29;77.30
35918;BME280;22011;59.912;30.300;2024-01-10T01:20:03;101693.91;;;0.29;77.07
35918;BME280;22011;59.912;30.300;2024-01-10T01:22:31;101690.75;;;0.23;77.36
35918;BME280;22011;59.912;30.300;2024-01-10T01:24:58;101697.28;;;0.14;76.94
35918;BME280;22011;59.912;30.300;2024-01-10T01:27:26;101692.03;;;0.14;77.37
35918;BME280;22011;59.912;30.300;2024-01-10T01:29:53;101703.22;;;0.18;77.10
35918;BME280;22011;59.912;30.300;2024-01-10T01:32:21;101720.66;;;0.19;76.54
35918;BME280;22011;59.912;30.300;2024-01-10T01:34:49;101708.31;;;0.21;76.25
35918;BME280;22011;59.912;30.300;2024-01-10T01:37:18;101709.31;;;0.18;76.96
35918;BME280;22011;59.912;30.300;2024-01-10T01:39:45;101716.47;;;0.15;76.29
35918;BME280;22011;59.912;30.300;2024-01-10T01:42:13;101710.09;;;0.20;76.12
35918;BME280;22011;59.912;30.300;2024-01-10T01:44:40;101710.00;;;0.22;75.81
35918;BME280;22011;59.912;30.300;2024-01-10T01:47:08;101703.91;;;0.21;74.91
35918;BME280;22011;59.912;30.300;2024-01-10T01:49:36;101711.16;;;0.16;75.20
35918;BME280;22011;59.912;30.300;2024-01-10T01:52:04;101716.69;;;0.10;75.55
35918;BME280;22011;59.912;30.300;2024-01-10T01:54:34;101716.25;;;0.19;75.54
35918;BME280;22011;59.912;30.300;2024-01-10T01:57:03;101714.56;;;0.18;75.70
35918;BME280;22011;59.912;30.300;2024-01-10T01:59:31;101713.47;;;0.22;75.37
35918;BME280;22011;59.912;30.300;2024-01-10T02:02:00;101723.34;;;0.17;75.79
35918;BME280;22011;59.912;30.300;2024-01-10T02:04:30;101733.97;;;0.14;75.94
35918;BME280;22011;59.912;30.300;2024-01-10T02:06:57;101736.75;;;0.11;75.39
35918;BME280;22011;59.912;30.300;2024-01-10T02:09:25;101741.97;;;0.11;75.40
35918;BME280;22011;59.912;30.300;2024-01-10T02:11:54;101739.22;;;0.14;75.04
35918;BME280;22011;59.912;30.300;2024-01-10T02:14:22;101748.00;;;0.13;75.06
35918;BME280;22011;59.912;30.300;2024-01-10T02:16:50;101755.09;;;0.11;75.21
35918;BME280;22011;59.912;30.300;2024-01-10T02:19:19;101749.63;;;-0.02;75.04
35918;BME280;22011;59.912;30.300;2024-01-10T02:21:47;101756.34;;;-0.15;74.74
35918;BME280;22011;59.912;30.300;2024-01-10T02:24:14;101760.69;;;-0.14;74.83
35918;BME280;22011;59.912;30.300;2024-01-10T02:26:43;101758.53;;;-0.06;74.86
35918;BME280;22011;59.912;30.300;2024-01-10T02:29:11;101758.47;;;-0.04;74.84
35918;BME280;22011;59.912;30.300;2024-01-10T02:31:39;101747.06;;;-0.03;74.74
35918;BME280;22011;59.912;30.300;2024-01-10T02:34:06;101762.94;;;-0.06;74.98
35918;BME280;22011;59.912;30.300;2024-01-10T02:36:34;101754.50;;;-0.13;74.63
35918;BME280;22011;59.912;30.300;2024-01-10T02:39:01;101746.72;;;-0.14;73.94
35918;BME280;22011;59.912;30.300;2024-01-10T02:41:29;101745.03;;;-0.15;74.06
35918;BME280;22011;59.912;30.300;2024-01-10T02:43:58;101746.09;;;-0.19;74.10
35918;BME280;22011;59.912;30.300;2024-01-10T02:46:26;101749.78;;;-0.23;74.34
35918;BME280;22011;59.912;30.300;2024-01-10T02:48:54;101750.63;;;-0.23;74.10
35918;BME280;22011;59.912;30.300;2024-01-10T02:51:23;101748.22;;;-0.27;73.28
35918;BME280;22011;59.912;30.300;2024-01-10T02:53:51;101754.66;;;-0.35;72.56
35918;BME280;22011;59.912;30.300;2024-01-10T02:56:18;101755.31;;;-0.48;72.54
35918;BME280;22011;59.912;30.300;2024-01-10T02:58:46;101758.47;;;-0.60;72.27
35918;BME280;22011;59.912;30.300;2024-01-10T03:01:15;101756.91;;;-0.64;72.14
35918;BME280;22011;59.912;30.300;2024-01-10T03:03:42;101752.88;;;-0.72;72.05
35918;BME280;22011;59.912;30.300;2024-01-10T03:06:10;101761.84;;;-0.77;71.81
35918;BME280;22011;59.912;30.300;2024-01-10T03:08:38;101757.66;;;-0.81;72.00
35918;BME280;22011;59.912;30.300;2024-01-10T03:11:05;101762.19;;;-0.85;71.66
35918;BME280;22011;59.912;30.300;2024-01-10T03:13:33;101768.59;;;-0.92;71.68
35918;BME280;22011;59.912;30.300;2024-01-10T03:16:00;101768.81;;;-0.96;71.38
35918;BME280;22011;59.912;30.300;2024-01-10T03:18:29;101774.94;;;-0.98;71.44
35918;BME280;22011;59.912;30.300;2024-01-10T03:20:57;101765.72;;;-1.05;71.89
35918;BME280;22011;59.912;30.300;2024-01-10T03:23:24;101767.75;;;-1.11;71.80
35918;BME280;22011;59.912;30.300;2024-01-10T03:25:53;101768.91;;;-1.18;72.27
35918;BME280;22011;59.912;30.300;2024-01-10T03:28:21;101771.91;;;-1.27;73.19
35918;BME280;22011;59.912;30.300;2024-01-10T03:30:48;101765.06;;;-1.30;73.04
35918;BME280;22011;59.912;30.300;2024-01-10T03:33:16;101774.72;;;-1.32;72.46
35918;BME280;22011;59.912;30.300;2024-01-10T03:35:45;101784.00;;;-1.25;72.49
35918;BME280;22011;59.912;30.300;2024-01-10T03:38:12;101788.47;;;-1.27;72.23
35918;BME280;22011;59.912;30.300;2024-01-10T03:40:42;101794.47;;;-1.25;71.92
35918;BME280;22011;59.912;30.300;2024-01-10T03:43:10;101815.50;;;-1.28;71.76
35918;BME280;22011;59.912;30.300;2024-01-10T03:45:38;101811.38;;;-1.34;72.29
35918;BME280;22011;59.912;30.300;2024-01-10T03:48:06;101814.78;;;-1.32;72.96
35918;BME280;22011;59.912;30.300;2024-01-10T03:50:34;101825.31;;;-1.33;72.57
35918;BME280;22011;59.912;30.300;2024-01-10T03:53:03;101832.19;;;-1.30;72.47
35918;BME280;22011;59.912;30.300;2024-01-10T03:55:32;101831.22;;;-1.08;72.96
35918;BME280;22011;59.912;30.300;2024-01-10T03:57:59;101843.38;;;-1.27;72.20
35918;BME280;22011;59.912;30.300;2024-01-10T04:00:27;101838.38;;;-1.33;71.87
35918;BME280;22011;59.912;30.300;2024-01-10T04:02:54;101832.31;;;-1.34;71.88
35918;BME280;22011;59.912;30.300;2024-01-10T04:05:22;101840.81;;;-1.28;71.94
35918;BME280;22011;59.912;30.300;2024-01-10T04:07:51;101837.28;;;-1.27;71.29
35918;BME280;22011;59.912;30.300;2024-01-10T04:10:20;101821.66;;;-1.29;71.62
35918;BME280;22011;59.912;30.300;2024-01-10T04:12:48;101829.63;;;-1.32;71.53
35918;BME280;22011;59.912;30.300;2024-01-10T04:15:15;101825.31;;;-1.33;71.28
35918;BME280;22011;59.912;30.300;2024-01-10T04:17:44;101821.91;;;-1.35;71.78
35918;BME280;22011;59.912;30.300;2024-01-10T04:20:12;101824.66;;;-1.38;71.34
35918;BME280;22011;59.912;30.300;2024-01-10T04:22:39;101822.09;;;-1.40;71.48
35918;BME280;22011;59.912;30.300;2024-01-10T04:25:07;101830.91;;;-1.42;71.63
35918;BME280;22011;59.912;30.300;2024-01-10T04:27:36;101839.53;;;-1.40;71.80
35918;BME280;22011;59.912;30.300;2024-01-10T04:30:05;101841.19;;;-1.38;71.57
35918;BME280;22011;59.912;30.300;2024-01-10T04:32:33;101840.41;;;-1.40;71.55
35918;BME280;22011;59.912;30.300;2024-01-10T04:35:01;101847.31;;;-1.39;71.79
35918;BME280;22011;59.912;30.300;2024-01-10T04:37:28;101838.50;;;-1.36;71.32
35918;BME280;22011;59.912;30.300;2024-01-10T04:39:56;101830.59;;;-1.35;71.44
35918;BME280;22011;59.912;30.300;2024-01-10T04:42:23;101824.53;;;-1.35;71.66
35918;BME280;22011;59.912;30.300;2024-01-10T04:44:52;101831.47;;;-1.34;71.41
35918;BME280;22011;59.912;30.300;2024-01-10T04:47:20;101835.16;;;-1.40;71.41
35918;BME280;22011;59.912;30.300;2024-01-10T04:49:48;101840.34;;;-1.38;71.47
35918;BME280;22011;59.912;30.300;2024-01-10T04:52:15;101843.69;;;-1.35;71.53
35918;BME280;22011;59.912;30.300;2024-01-10T04:54:43;101842.03;;;-1.37;71.14
35918;BME280;22011;59.912;30.300;2024-01-10T04:57:10;101839.44;;;-1.37;71.14
35918;BME280;22011;59.912;30.300;2024-01-10T04:59:38;101838.50;;;-1.36;71.88
35918;BME280;22011;59.912;30.300;2024-01-10T05:02:07;101840.34;;;-1.38;71.87
35918;BME280;22011;59.912;30.300;2024-01-10T05:04:35;101840.47;;;-1.41;71.38
35918;BME280;22011;59.912;30.300;2024-01-10T05:07:02;101856.16;;;-1.41;71.68
35918;BME280;22011;59.912;30.300;2024-01-10T05:09:30;101854.69;;;-1.48;72.55
35918;BME280;22011;59.912;30.300;2024-01-10T05:11:58;101864.22;;;-1.47;72.34
35918;BME280;22011;59.912;30.300;2024-01-10T05:14:25;101864.28;;;-1.49;72.57
35918;BME280;22011;59.912;30.300;2024-01-10T05:16:53;101850.19;;;-1.45;71.84
35918;BME280;22011;59.912;30.300;2024-01-10T05:19:22;101853.28;;;-1.35;71.23
35918;BME280;22011;59.912;30.300;2024-01-10T05:21:50;101851.66;;;-1.38;70.80
35918;BME280;22011;59.912;30.300;2024-01-10T05:24:17;101844.66;;;-1.37;70.29
35918;BME280;22011;59.912;30.300;2024-01-10T05:26:45;101835.22;;;-1.41;70.35
35918;BME280;22011;59.912;30.300;2024-01-10T05:29:13;101840.53;;;-1.43;70.09
35918;BME280;22011;59.912;30.300;2024-01-10T05:31:41;101848.31;;;-1.41;70.40
35918;BME280;22011;59.912;30.300;2024-01-10T05:34:08;101847.41;;;-1.40;70.32
35918;BME280;22011;59.912;30.300;2024-01-10T05:36:37;101849.22;;;-1.42;71.22
35918;BME280;22011;59.912;30.300;2024-01-10T05:39:05;101842.22;;;-1.42;71.19
35918;BME280;22011;59.912;30.300;2024-01-10T05:41:33;101843.75;;;-1.36;71.15
35918;BME280;22011;59.912;30.300;2024-01-10T05:44:00;101848.84;;;-1.33;70.71
35918;BME280;22011;59.912;30.300;2024-01-10T05:46:30;101847.03;;;-1.31;70.42
35918;BME280;22011;59.912;30.300;2024-01-10T05:48:58;101860.22;;;-1.34;70.76
35918;BME280;22011;59.912;30.300;2024-01-10T05:51:25;101853.41;;;-1.38;71.72
35918;BME280;22011;59.912;30.300;2024-01-10T05:53:55;101847.31;;;-1.39;72.34
35918;BME280;22011;59.912;30.300;2024-01-10T05:56:22;101857.06;;;-1.42;71.71
35918;BME280;22011;59.912;30.300;2024-01-10T05:58:50;101840.72;;;-1.47;71.11
35918;BME280;22011;59.912;30.300;2024-01-10T06:01:17;101826.84;;;-1.49;71.51
35918;BME280;22011;59.912;30.300;2024-01-10T06:03:45;101825.16;;;-1.50;70.99
35918;BME280;22011;59.912;30.300;2024-01-10T06:06:13;101819.91;;;-1.50;70.62
35918;BME280;22011;59.912;30.300;2024-01-10T06:08:40;101820.97;;;-1.54;70.61
35918;BME280;22011;59.912;30.300;2024-01-10T06:11:10;101817.31;;;-1.50;70.79
35918;BME280;22011;59.912;30.300;2024-01-10T06:13:38;101803.56;;;-1.55;70.91
35918;BME280;22011;59.912;30.300;2024-01-10T06:16:07;101802.72;;;-1.56;71.33
35918;BME280;22011;59.912;30.300;2024-01-10T06:18:34;101801.28;;;-1.63;70.80
35918;BME280;22011;59.912;30.300;2024-01-10T06:21:02;101792.59;;;-1.63;70.54
35918;BME280;22011;59.912;30.300;2024-01-10T06:23:30;101780.50;;;-1.66;70.53
35918;BME280;22011;59.912;30.300;2024-01-10T06:25:58;101777.88;;;-1.66;70.58
35918;BME280;22011;59.912;30.300;2024-01-10T06:28:27;101778.59;;;-1.62;71.08
35918;BME280;22011;59.912;30.300;2024-01-10T06:30:54;101774.44;;;-1.46;70.87
35918;BME280;22011;59.912;30.300;2024-01-10T06:33:22;101765.47;;;-1.61;70.95
35918;BME280;22011;59.912;30.300;2024-01-10T06:35:49;101769.19;;;-1.67;71.18
35918;BME280;22011;59.912;30.300;2024-01-10T06:38:17;101768.28;;;-1.66;71.17
35918;BME280;22011;59.912;30.300;2024-01-10T06:40:46;101770.84;;;-1.64;71.01
35918;BME280;22011;59.912;30.300;2024-01-10T06:43:14;101765.66;;;-1.66;71.76
35918;BME280;22011;59.912;30.300;2024-01-10T06:45:44;101763.97;;;-1.67;72.54
35918;BME280;22011;59.912;30.300;2024-01-10T06:48:11;101753.63;;;-1.70;72.99
35918;BME280;22011;59.912;30.300;2024-01-10T06:50:39;101750.41;;;-1.54;73.29
35918;BME280;22011;59.912;30.300;2024-01-10T06:53:07;101759.59;;;-1.66;73.11
35918;BME280;22011;59.912;30.300;2024-01-10T06:55:35;101752.56;;;-1.44;72.57
35918;BME280;22011;59.912;30.300;2024-01-10T06:58:02;101746.16;;;-1.37;72.68
35918;BME280;22011;59.912;30.300;2024-01-10T07:00:30;101758.38;;;-1.57;72.85
35918;BME280;22011;59.912;30.300;2024-01-10T07:03:02;101785.28;;;-1.55;73.56
35918;BME280;22011;59.912;30.300;2024-01-10T07:05:30;101799.25;;;-1.56;73.33
35918;BME280;22011;59.912;30.300;2024-01-10T07:07:58;101775.69;;;-1.55;72.84
35918;BME280;22011;59.912;30.300;2024-01-10T07:10:25;101772.59;;;-1.65;73.19
35918;BME280;22011;59.912;30.300;2024-01-10T07:12:55;101750.19;;;-1.70;73.74
35918;BME280;22011;59.912;30.300;2024-01-10T07:15:22;101732.13;;;-1.76;74.02
35918;BME280;22011;59.912;30.300;2024-01-10T07:17:50;101746.00;;;-1.74;74.02
35918;BME280;22011;59.912;30.300;2024-01-10T07:20:19;101738.81;;;-1.69;73.66
35918;BME280;22011;59.912;30.300;2024-01-10T07:22:50;101744.03;;;-1.69;73.79
35918;BME280;22011;59.912;30.300;2024-01-10T07:25:18;101745.81;;;-1.70;74.22
35918;BME280;22011;59.912;30.300;2024-01-10T07:27:48;101753.69;;;-1.71;74.09
35918;BME280;22011;59.912;30.300;2024-01-10T07:30:16;101751.03;;;-1.70;74.24
35918;BME280;22011;59.912;30.300;2024-01-10T07:32:44;101754.44;;;-1.68;74.29
35918;BME280;22011;59.912;30.300;2024-01-10T07:35:13;101752.47;;;-1.62;73.85
35918;BME280;22011;59.912;30.300;2024-01-10T07:37:42;101757.44;;;-1.56;73.50
35918;BME280;22011;59.912;30.300;2024-01-10T07:40:10;101760.06;;;-1.56;73.48
35918;BME280;22011;59.912;30.300;2024-01-10T07:42:39;101749.59;;;-1.56;72.99
35918;BME280;22011;59.912;30.300;2024-01-10T07:45:07;101747.78;;;-1.54;72.25
35918;BME280;22011;59.912;30.300;2024-01-10T07:47:35;101747.84;;;-1.56;72.46
35918;BME280;22011;59.912;30.300;2024-01-10T07:50:05;101753.25;;;-1.60;71.76
35918;BME280;22011;59.912;30.300;2024-01-10T07:52:32;101755.03;;;-1.61;72.02
35918;BME280;22011;59.912;30.300;2024-01-10T07:55:01;101747.13;;;-1.59;71.53
35918;BME280;22011;59.912;30.300;2024-01-10T07:57:31;101734.06;;;-1.59;71.34
35918;BME280;22011;59.912;30.300;2024-01-10T08:00:00;101735.09;;;-1.63;72.11
35918;BME280;22011;59.912;30.300;2024-01-10T08:02:34;101730.91;;;-1.68;71.67
35918;BME280;22011;59.912;30.300;2024-01-10T08:05:03;101716.75;;;-1.62;71.57
35918;BME280;22011;59.912;30.300;2024-01-10T08:07:34;101717.47;;;-1.58;71.30
35918;BME280;22011;59.912;30.300;2024-01-10T08:10:06;101728.66;;;-1.35;71.68
35918;BME280;22011;59.912;30.300;2024-01-10T08:12:34;101730.53;;;-1.38;71.17
35918;BME280;22011;59.912;30.300;2024-01-10T08:15:01;101708.50;;;-1.53;71.49
35918;BME280;22011;59.912;30.300;2024-01-10T08:17:29;101713.28;;;-1.42;71.06
35918;BME280;22011;59.912;30.300;2024-01-10T08:19:57;101702.44;;;-1.33;71.00
35918;BME280;22011;59.912;30.300;2024-01-10T08:22:24;101707.59;;;-1.52;71.75
35918;BME280;22011;59.912;30.300;2024-01-10T08:24:52;101701.31;;;-1.68;72.77
35918;BME280;22011;59.912;30.300;2024-01-10T08:27:21;101697.06;;;-1.71;73.53
35918;BME280;22011;59.912;30.300;2024-01-10T08:29:49;101705.03;;;-1.74;73.72
35918;BME280;22011;59.912;30.300;2024-01-10T08:32:17;101703.41;;;-1.76;73.84
35918;BME280;22011;59.912;30.300;2024-01-10T08:34:47;101679.94;;;-1.78;73.75
35918;BME280;22011;59.912;30.300;2024-01-10T08:37:16;101663.38;;;-1.77;73.94
35918;BME280;22011;59.912;30.300;2024-01-10T08:39:44;101661.66;;;-1.78;73.97
35918;BME280;22011;59.912;30.300;2024-01-10T08:42:12;101666.22;;;-1.83;73.67
35918;BME280;22011;59.912;30.300;2024-01-10T08:44:41;101661.31;;;-1.90;74.02
35918;BME280;22011;59.912;30.300;2024-01-10T08:47:09;101659.75;;;-1.94;73.93
35918;BME280;22011;59.912;30.300;2024-01-10T08:49:37;101661.56;;;-1.97;74.24
35918;BME280;22011;59.912;30.300;2024-01-10T08:52:05;101650.88;;;-1.90;74.75
35918;BME280;22011;59.912;30.300;2024-01-10T08:54:35;101642.00;;;-1.86;74.61
35918;BME280;22011;59.912;30.300;2024-01-10T08:57:03;101641.81;;;-1.82;74.42
35918;BME280;22011;59.912;30.300;2024-01-10T08:59:30;101630.38;;;-1.79;73.86
35918;BME280;22011;59.912;30.300;2024-01-10T09:01:59;101626.00;;;-1.79;73.79
35918;BME280;22011;59.912;30.300;2024-01-10T09:04:28;101617.13;;;-1.75;74.28
35918;BME280;22011;59.912;30.300;2024-01-10T09:06:55;101619.53;;;-1.70;74.03
35918;BME280;22011;59.912;30.300;2024-01-10T09:09:23;101620.53;;;-1.73;73.69
35918;BME280;22011;59.912;30.300;2024-01-10T09:11:51;101615.09;;;-1.68;73.12
35918;BME280;22011;59.912;30.300;2024-01-10T09:14:18;101609.94;;;-1.70;73.17
35918;BME280;22011;59.912;30.300;2024-01-10T09:16:46;101599.56;;;-1.71;73.19
35918;BME280;22011;59.912;30.300;2024-01-10T09:19:15;101589.31;;;-1.76;72.96
35918;BME280;22011;59.912;30.300;2024-01-10T09:21:43;101587.88;;;-1.83;73.30
35918;BME280;22011;59.912;30.300;2024-01-10T09:24:12;101585.38;;;-1.86;73.48
35918;BME280;22011;59.912;30.300;2024-01-10T09:26:40;101575.72;;;-1.84;73.33
35918;BME280;22011;59.912;30.300;2024-01-10T09:29:08;101570.38;;;-1.81;72.77
35918;BME280;22011;59.912;30.300;2024-01-10T09:31:36;101570.22;;;-1.78;72.93
35918;BME280;22011;59.912;30.300;2024-01-10T09:34:04;101556.47;;;-1.81;73.08
35918;BME280;22011;59.912;30.300;2024-01-10T09:36:33;101555.59;;;-1.82;73.58
35918;BME280;22011;59.912;30.300;2024-01-10T09:39:00;101544.44;;;-1.85;74.15
35918;BME280;22011;59.912;30.300;2024-01-10T09:41:32;101532.88;;;-1.80;73.99
35918;BME280;22011;59.912;30.300;2024-01-10T09:44:04;101536.00;;;-1.72;73.76
35918;BME280;22011;59.912;30.300;2024-01-10T09:46:32;101546.25;;;-1.67;73.61
35918;BME280;22011;59.912;30.300;2024-01-10T09:49:01;101526.78;;;-1.60;73.46
35918;BME280;22011;59.912;30.300;2024-01-10T09:51:30;101514.56;;;-1.59;73.64
35918;BME280;22011;59.912;30.300;2024-01-10T09:54:03;101509.06;;;-1.53;74.11
35918;BME280;22011;59.912;30.300;2024-01-10T09:56:32;101507.00;;;-1.47;73.86
35918;BME280;22011;59.912;30.300;2024-01-10T09:59:01;101499.66;;;-1.39;73.75
35918;BME280;22011;59.912;30.300;2024-01-10T10:01:30;101496.97;;;-1.37;73.88
35918;BME280;22011;59.912;30.300;2024-01-10T10:04:01;101499.88;;;-1.43;74.21
35918;BME280;22011;59.912;30.300;2024-01-10T10:06:29;101476.28;;;-1.42;74.09
35918;BME280;22011;59.912;30.300;2024-01-10T10:08:56;101448.66;;;-1.47;73.85
35918;BME280;22011;59.912;30.300;2024-01-10T10:11:25;101438.06;;;-1.44;74.14
35918;BME280;22011;59.912;30.300;2024-01-10T10:13:53;101436.06;;;-1.39;74.32
35918;BME280;22011;59.912;30.300;2024-01-10T10:16:23;101417.13;;;-1.25;74.09
35918;BME280;22011;59.912;30.300;2024-01-10T10:18:52;101425.03;;;-1.27;74.33
35918;BME280;22011;59.912;30.300;2024-01-10T10:21:25;101431.81;;;-1.23;74.24
35918;BME280;22011;59.912;30.300;2024-01-10T10:24:00;101432.28;;;-1.15;74.52
35918;BME280;22011;59.912;30.300;2024-01-10T10:26:32;101426.44;;;-1.20;74.15
35918;BME280;22011;59.912;30.300;2024-01-10T10:29:00;101428.22;;;-1.20;74.45
35918;BME280;22011;59.912;30.300;2024-01-10T10:31:29;101421.13;;;-1.18;74.60
35918;BME280;22011;59.912;30.300;2024-01-10T10:33:59;101404.38;;;-1.14;74.67
35918;BME280;22011;59.912;30.300;2024-01-10T10:36:30;101375.53;;;-1.13;74.82
35918;BME280;22011;59.912;30.300;2024-01-10T10:38:59;101372.91;;;-1.13;74.59
35918;BME280;22011;59.912;30.300;2024-01-10T10:41:31;101367.47;;;-1.08;75.25
35918;BME280;22011;59.912;30.300;2024-01-10T10:44:00;101354.31;;;-1.07;75.19
35918;BME280;22011;59.912;30.300;2024-01-10T10:46:31;101357.69;;;-1.05;75.16
35918;BME280;22011;59.912;30.300;2024-01-10T10:48:59;101357.50;;;-1.02;75.26
35918;BME280;22011;59.912;30.300;2024-01-10T10:51:34;101345.19;;;-1.00;74.98
35918;BME280;22011;59.912;30.300;2024-01-10T10:54:04;101333.75;;;-0.97;75.39
35918;BME280;22011;59.912;30.300;2024-01-10T10:56:36;101322.88;;;-0.89;75.27
35918;BME280;22011;59.912;30.300;2024-01-10T10:59:05;101304.56;;;-0.89;75.30
35918;BME280;22011;59.912;30.300;2024-01-10T11:01:35;101307.88;;;-0.86;75.58
35918;BME280;22011;59.912;30.300;2024-01-10T11:04:03;101309.66;;;-0.86;75.30
35918;BME280;22011;59.912;30.300;2024-01-10T11:06:31;101308.56;;;-0.82;75.47
35918;BME280;22011;59.912;30.300;2024-01-10T11:09:03;101297.03;;;-0.78;75.65
35918;BME280;22011;59.912;30.300;2024-01-10T11:11:44;101300.84;;;-0.68;76.07
35918;BME280;22011;59.912;30.300;2024-01-10T11:14:23;101294.69;;;-0.67;76.10
35918;BME280;22011;59.912;30.300;2024-01-10T11:20:17;101276.50;;;-0.53;76.14
35918;BME280;22011;59.912;30.300;2024-01-10T11:23:01;101266.03;;;-0.53;76.04
35918;BME280;22011;59.912;30.300;2024-01-10T11:25:34;101261.63;;;-0.52;76.11
35918;BME280;22011;59.912;30.300;2024-01-10T11:28:04;101245.00;;;-0.51;76.41
35918;BME280;22011;59.912;30.300;2024-01-10T11:30:33;101237.81;;;-0.48;76.59
35918;BME280;22011;59.912;30.300;2024-01-10T11:33:07;101227.19;;;-0.45;76.81
35918;BME280;22011;59.912;30.300;2024-01-10T11:36:06;101212.16;;;-0.25;77.44
35918;BME280;22011;59.912;30.300;2024-01-10T11:38:38;101202.59;;;-0.11;77.63
35918;BME280;22011;59.912;30.300;2024-01-10T11:41:06;101187.66;;;-0.24;76.88
35918;BME280;22011;59.912;30.300;2024-01-10T11:43:36;101187.31;;;-0.18;77.46
35918;BME280;22011;59.912;30.300;2024-01-10T11:46:03;101177.53;;;-0.15;77.74
35918;BME280;22011;59.912;30.300;2024-01-10T11:48:33;101164.91;;;-0.08;78.07
35918;BME280;22011;59.912;30.300;2024-01-10T11:51:03;101154.66;;;0.03;78.42
35918;BME280;22011;59.912;30.300;2024-01-10T11:53:40;101145.06;;;0.18;78.84
35918;BME280;22011;59.912;30.300;2024-01-10T11:56:12;101136.16;;;0.20;78.54
35918;BME280;22011;59.912;30.300;2024-01-10T11:59:00;101120.19;;;0.39;78.82
35918;BME280;22011;59.912;30.300;2024-01-10T12:01:28;101116.47;;;0.43;78.30
35918;BME280;22011;59.912;30.300;2024-01-10T12:03:57;101102.25;;;0.47;78.32
35918;BME280;22011;59.912;30.300;2024-01-10T12:06:26;101087.34;;;0.48;78.54
35918;BME280;22011;59.912;30.300;2024-01-10T12:08:54;101098.38;;;0.39;79.02
35918;BME280;22011;59.912;30.300;2024-01-10T12:11:21;101100.91;;;0.40;79.49
35918;BME280;22011;59.912;30.300;2024-01-10T12:13:49;101097.47;;;0.40;79.78
35918;BME280;22011;59.912;30.300;2024-01-10T12:16:18;101071.25;;;0.54;79.62
35918;BME280;22011;59.912;30.300;2024-01-10T12:18:46;101056.84;;;0.47;79.74
35918;BME280;22011;59.912;30.300;2024-01-10T12:21:14;101050.00;;;0.58;79.33
35918;BME280;22011;59.912;30.300;2024-01-10T12:23:41;101034.72;;;0.65;79.51
35918;BME280;22011;59.912;30.300;2024-01-10T12:26:10;101031.72;;;0.71;79.28
35918;BME280;22011;59.912;30.300;2024-01-10T12:28:39;101021.22;;;0.71;79.46
35918;BME280;22011;59.912;30.300;2024-01-10T12:31:08;101008.78;;;0.75;79.63
35918;BME280;22011;59.912;30.300;2024-01-10T12:33:38;101003.69;;;0.86;79.38
35918;BME280;22011;59.912;30.300;2024-01-10T12:36:07;100996.28;;;0.92;78.96
35918;BME280;22011;59.912;30.300;2024-01-10T12:38:36;100986.53;;;0.94;79.05
35918;BME280;22011;59.912;30.300;2024-01-10T12:41:04;100981.91;;;0.71;79.96
35918;BME280;22011;59.912;30.300;2024-01-10T12:43:35;100974.94;;;0.84;79.86
35918;BME280;22011;59.912;30.300;2024-01-10T12:46:04;100969.34;;;1.03;79.43
35918;BME280;22011;59.912;30.300;2024-01-10T12:48:34;100957.28;;;1.13;79.10
35918;BME280;22011;59.912;30.300;2024-01-10T12:51:05;100936.00;;;1.18;78.83
35918;BME280;22011;59.912;30.300;2024-01-10T12:53:34;100930.63;;;1.19;79.00